Date,TemperatureHighF,TemperatureAvgF,TemperatureLowF,DewpointHighF,DewpointAvgF,DewpointLowF,HumidityHigh,HumidityAvg,HumidityLow,PressureMaxIn,PressureMinIn,WindSpeedMaxMPH,WindSpeedAvgMPH,GustSpeedMaxMPH,PrecipitationSumIn
2013-1-1,26,16,8,-100,-100,-100,0,0,100,0.00,40.00,0,-999,0,0.00
2013-1-2,12,7,2,-100,-100,-100,0,0,100,0.00,40.00,0,-999,0,0.01
2013-1-3,28,17,10,-100,-100,-100,0,0,100,0.00,40.00,0,-999,0,0.01
2013-1-4,36,24,14,-100,-100,-100,0,0,100,0.00,40.00,0,-999,0,0.00
2013-1-5,30,23,18,-100,-100,-100,0,0,100,0.00,40.00,0,-999,0,0.00
2013-1-6,36,29,23,-100,-100,-100,0,0,100,0.00,40.00,0,-999,0,0.01
2013-1-7,34,26,20,-100,-100,-100,0,0,100,0.00,40.00,0,-999,0,0.01
2013-1-8,35,33,30,-100,-100,-100,0,0,100,0.00,40.00,0,-999,0,0.01
2013-1-9,37,33,28,-100,-100,-100,0,0,100,0.00,40.00,0,-999,0,0.01
2013-1-10,33,26,20,-100,-100,-100,0,0,100,0.00,40.00,0,-999,0,0.01
2013-1-11,20,13,3,-100,-100,-100,0,0,100,0.00,40.00,0,-999,0,0.00
2013-1-12,16,5,-6,-100,-100,-100,0,0,100,0.00,40.00,0,-999,0,0.00
2013-1-13,16,9,-6,-100,-100,-100,0,0,100,0.00,40.00,0,-999,0,0.01
2013-1-14,21,16,9,-100,-100,-100,0,0,100,0.00,40.00,0,-999,0,0.01
2013-1-15,33,26,20,-100,-100,-100,0,0,100,0.00,40.00,0,-999,0,0.01
2013-1-16,29,20,17,-100,-100,-100,0,0,100,0.00,40.00,0,-999,0,0.00
2013-1-17,30,22,15,-100,-100,-100,0,0,100,0.00,40.00,0,-999,0,0.00
2013-1-18,38,25,19,-100,-100,-100,0,0,100,0.00,40.00,0,-999,0,0.00
2013-1-19,35,23,17,-100,-100,-100,0,0,100,0.00,40.00,0,-999,0,0.00
2013-1-20,33,24,18,-100,-100,-100,0,0,100,0.00,40.00,0,-999,0,0.00
2013-1-21,34,25,19,-100,-100,-100,0,0,100,0.00,40.00,0,-999,0,0.00
2013-1-22,34,24,14,-100,-100,-100,0,0,100,0.00,40.00,0,-999,0,0.00
2013-1-23,25,22,20,-100,-100,-100,0,0,100,0.00,40.00,0,-999,0,0.00
2013-1-27,26,22,17,-100,-100,-100,0,0,100,0.00,40.00,0,-999,0,0.00
2013-1-29,26,26,26,-100,-100,-100,0,0,100,0.00,40.00,0,-999,0,0.00
2013-1-30,30,29,28,-100,-100,-100,0,0,100,0.00,40.00,0,-999,0,0.02
2013-1-31,36,36,36,-100,-100,-100,0,0,100,0.00,40.00,0,-999,0,0.00
2013-2-2,33,26,21,-100,-100,-100,0,0,100,0.00,40.00,0,-999,0,0.00
2013-2-3,37,28,21,-100,-100,-100,0,0,100,0.00,40.00,0,-999,0,0.00
2013-2-4,38,32,25,-100,-100,-100,0,0,100,0.00,40.00,0,-999,0,0.00
2013-2-5,40,33,26,-100,-100,-100,0,0,100,0.00,40.00,0,-999,0,0.01
2013-2-6,31,31,31,-100,-100,-100,0,0,100,0.00,40.00,0,-999,0,0.01
2013-2-7,37,27,18,-100,-100,-100,0,0,100,0.00,40.00,0,-999,0,0.00
2013-2-8,30,26,22,-100,-100,-100,0,0,100,0.00,40.00,0,-999,0,0.00
2013-2-9,30,25,24,-100,-100,-100,0,0,100,0.00,40.00,0,-999,0,0.00
2013-2-10,29,22,14,-100,-100,-100,0,0,100,0.00,40.00,0,-999,0,0.00
2013-2-11,30,26,14,-100,-100,-100,0,0,100,0.00,40.00,0,-999,0,0.00
2013-2-12,32,31,29,-100,-100,-100,0,0,100,0.00,40.00,0,-999,0,0.00
2013-2-13,32,32,31,-100,-100,-100,0,0,100,0.00,40.00,0,-999,0,0.00
2013-2-14,32,30,28,-100,-100,-100,0,0,100,0.00,40.00,0,-999,0,0.01
2013-2-15,33,31,29,-100,-100,-100,0,0,100,0.00,40.00,0,-999,0,0.00
2013-2-16,47,31,21,-100,-100,-100,0,0,100,0.00,40.00,0,-999,0,0.00
2013-2-17,30,30,30,-100,-100,-100,0,0,100,0.00,40.00,0,-999,0,0.00
2013-2-18,34,28,23,-100,-100,-100,0,0,100,0.00,40.00,0,-999,0,0.00
2013-2-19,36,24,19,-100,-100,-100,0,0,100,0.00,40.00,0,-999,0,0.00
2013-2-20,30,27,23,-100,-100,-100,0,0,100,0.00,40.00,0,-999,0,0.01
2013-2-21,31,17,7,-100,-100,-100,0,0,100,0.00,40.00,0,-999,0,0.00
2013-2-22,36,32,25,-100,-100,-100,0,0,100,0.00,40.00,0,-999,0,0.01
2013-2-23,27,27,27,-100,-100,-100,0,0,100,0.00,40.00,0,-999,0,0.00
2013-2-26,28,27,27,-100,-100,-100,0,0,100,0.00,40.00,0,-999,0,0.00
2013-2-27,37,27,10,-100,-100,-100,0,0,100,0.00,40.00,0,-999,0,0.00
2013-2-28,39,29,18,-100,-100,-100,0,0,100,0.00,40.00,0,-999,0,0.01
2013-3-1,44,37,31,-100,-100,-100,0,0,100,0.00,40.00,0,-999,0,0.02
2013-3-2,45,36,27,-100,-100,-100,0,0,100,0.00,40.00,0,-999,0,0.00
2013-3-3,36,29,23,-100,-100,-100,0,0,100,0.00,40.00,0,-999,0,0.01
2013-3-4,30,24,22,-100,-100,-100,0,0,100,0.00,40.00,0,-999,0,0.00
2013-3-5,39,24,8,-100,-100,-100,0,0,100,0.00,40.00,0,-999,0,0.00
2013-3-6,41,32,26,-100,-100,-100,0,0,100,0.00,40.00,0,-999,0,0.01
2013-3-7,39,30,24,-100,-100,-100,0,0,100,0.00,40.00,0,-999,0,0.02
2013-3-8,41,29,11,-100,-100,-100,0,0,100,0.00,40.00,0,-999,0,0.00
2013-3-9,38,28,17,-100,-100,-100,0,0,100,0.00,40.00,0,-999,0,0.01
2013-3-10,46,36,18,-100,-100,-100,0,0,100,0.00,40.00,0,-999,0,0.00
2013-3-11,41,34,26,-100,-100,-100,0,0,100,0.00,40.00,0,-999,0,0.01
2013-3-12,50,35,22,-100,-100,-100,0,0,100,0.00,40.00,0,-999,0,0.00
2013-3-13,55,39,30,-100,-100,-100,0,0,100,0.00,40.00,0,-999,0,0.00
2013-3-14,53,38,29,-100,-100,-100,0,0,100,0.00,40.00,0,-999,0,0.00
2013-3-15,52,42,34,-100,-100,-100,0,0,100,0.00,40.00,0,-999,0,0.00
2013-3-16,47,38,29,-100,-100,-100,0,0,100,0.00,40.00,0,-999,0,0.00
2013-3-17,33,27,23,-100,-100,-100,0,0,100,0.00,40.00,0,-999,0,0.02
2013-3-18,34,26,21,-100,-100,-100,0,0,100,0.00,40.00,0,-999,0,0.01
2013-3-19,43,30,16,-100,-100,-100,0,0,100,0.00,40.00,0,-999,0,0.01
2013-3-20,42,35,30,-100,-100,-100,0,0,100,0.00,40.00,0,-999,0,0.02
2013-3-21,30,26,21,-100,-100,-100,0,0,100,0.00,40.00,0,-999,0,0.02
2013-3-22,29,22,15,-100,-100,-100,0,0,100,0.00,40.00,0,-999,0,0.01
2013-3-23,29,20,12,-100,-100,-100,0,0,100,0.00,40.00,0,-999,0,0.00
2013-3-24,35,17,3,-100,-100,-100,0,0,100,0.00,40.00,0,-999,0,0.00
2013-3-25,43,24,7,-100,-100,-100,0,0,100,0.00,40.00,0,-999,0,0.01
2013-3-26,47,36,27,-100,-100,-100,0,0,100,0.00,40.00,0,-999,0,0.01
2013-3-27,51,35,24,-100,-100,-100,0,0,100,0.00,40.00,0,-999,0,0.00
2013-3-28,48,38,30,-100,-100,-100,0,0,100,0.00,40.00,0,-999,0,0.01
2013-3-29,48,38,31,-100,-100,-100,0,0,100,0.00,40.00,0,-999,0,0.00
2013-3-30,53,40,32,-100,-100,-100,0,0,100,0.00,40.00,0,-999,0,0.00
2013-3-31,60,39,28,-100,-100,-100,0,0,100,0.00,40.00,0,-999,0,0.00
2013-4-1,57,39,28,-100,-100,-100,0,0,100,0.00,40.00,0,-999,0,0.00
2013-4-2,57,42,32,-100,-100,-100,0,0,100,0.00,40.00,0,-999,0,0.00
2013-4-3,57,40,32,-100,-100,-100,0,0,100,0.00,40.00,0,-999,0,0.00
2013-4-4,53,40,32,-100,-100,-100,0,0,100,0.00,40.00,0,-999,0,0.00
2013-4-5,45,38,34,-100,-100,-100,0,0,100,0.00,40.00,0,-999,0,0.02
2013-4-6,47,37,34,-100,-100,-100,0,0,100,0.00,40.00,0,-999,0,0.01
2013-4-7,39,35,30,-100,-100,-100,0,0,100,0.00,40.00,0,-999,0,0.01
2013-4-8,37,32,28,-100,-100,-100,0,0,100,0.00,40.00,0,-999,0,0.01
2013-4-9,45,33,14,-100,-100,-100,0,0,100,0.00,40.00,0,-999,0,0.00
2013-4-10,45,36,28,-100,-100,-100,0,0,100,0.00,40.00,0,-999,0,0.01
2013-4-11,44,39,33,-100,-100,-100,0,0,100,0.00,40.00,0,-999,0,0.01
2013-4-12,53,37,25,-100,-100,-100,0,0,100,0.00,40.00,0,-999,0,0.00
2013-4-13,36,32,27,-100,-100,-100,0,0,100,0.00,40.00,0,-999,0,0.02
2013-4-14,38,29,21,-100,-100,-100,0,0,100,0.00,40.00,0,-999,0,0.01
2013-4-15,37,28,21,-100,-100,-100,0,0,100,0.00,40.00,0,-999,0,0.00
2013-4-16,36,25,14,-100,-100,-100,0,0,100,0.00,40.00,0,-999,0,0.00
2013-4-17,40,25,8,-100,-100,-100,0,0,100,0.00,40.00,0,-999,0,0.00
2013-4-18,43,30,18,-100,-100,-100,0,0,100,0.00,40.00,0,-999,0,0.01
2013-4-19,44,38,34,-100,-100,-100,0,0,100,0.00,40.00,0,-999,0,0.01
2013-4-20,45,38,35,-100,-100,-100,0,0,100,0.00,40.00,0,-999,0,0.01
2013-4-21,45,38,29,-100,-100,-100,0,0,100,0.00,40.00,0,-999,0,0.01
2013-4-22,38,28,21,-100,-100,-100,0,0,100,0.00,40.00,0,-999,0,0.01
2013-4-23,43,28,16,-100,-100,-100,0,0,100,0.00,40.00,0,-999,0,0.00
2013-4-24,53,48,36,-100,-100,-100,0,0,100,0.00,40.00,0,-999,0,0.00
2013-4-25,57,41,30,-100,-100,-100,0,0,100,0.00,40.00,0,-999,0,0.00
2013-4-26,63,43,29,-100,-100,-100,0,0,100,0.00,40.00,0,-999,0,0.00
2013-4-27,62,46,32,-100,-100,-100,0,0,100,0.00,40.00,0,-999,0,0.00
2013-4-28,56,43,36,-100,-100,-100,0,0,100,0.00,40.00,0,-999,0,0.00
2013-4-29,41,38,31,-100,-100,-100,0,0,100,0.00,40.00,0,-999,0,0.01
2013-4-30,39,32,24,-100,-100,-100,0,0,100,0.00,40.00,0,-999,0,0.01
2013-5-1,45,33,24,-100,-100,-100,0,0,100,0.00,40.00,0,-999,0,0.00
2013-5-2,59,40,23,-100,-100,-100,0,0,100,0.00,40.00,0,-999,0,0.00
2013-5-3,50,41,34,-100,-100,-100,0,0,100,0.00,40.00,0,-999,0,0.01
2013-5-4,52,44,36,-100,-100,-100,0,0,100,0.00,40.00,0,-999,0,0.00
2013-5-5,61,45,31,-100,-100,-100,0,0,100,0.00,40.00,0,-999,0,0.00
2013-5-6,67,45,32,-100,-100,-100,0,0,100,0.00,40.00,0,-999,0,0.00
2013-5-7,70,49,33,-100,-100,-100,0,0,100,0.00,40.00,0,-999,0,0.01
2013-5-8,68,47,34,-100,-100,-100,0,0,100,0.00,40.00,0,-999,0,0.01
2013-5-9,69,49,34,-100,-100,-100,0,0,100,0.00,40.00,0,-999,0,0.00
2013-5-10,72,49,36,-100,-100,-100,0,0,100,0.00,40.00,0,-999,0,0.00
2013-5-11,70,50,36,-100,-100,-100,0,0,100,0.00,40.00,0,-999,0,0.01
2013-5-12,76,53,38,-100,-100,-100,0,0,100,0.00,40.00,0,-999,0,0.01
2013-5-13,75,56,41,-100,-100,-100,0,0,100,0.00,40.00,0,-999,0,0.00
2013-5-14,65,52,40,-100,-100,-100,0,0,100,0.00,40.00,0,-999,0,0.00
2013-5-15,64,47,35,-100,-100,-100,0,0,100,0.00,40.00,0,-999,0,0.01
2013-5-16,54,45,39,-100,-100,-100,0,0,100,0.00,40.00,0,-999,0,0.01
2013-5-17,50,44,39,-100,-100,-100,0,0,100,0.00,40.00,0,-999,0,0.02
2013-5-18,51,44,36,-100,-100,-100,0,0,100,0.00,40.00,0,-999,0,0.01
2013-5-19,52,44,37,-100,-100,-100,0,0,100,0.00,40.00,0,-999,0,0.00
2013-5-20,62,48,35,-100,-100,-100,0,0,100,0.00,40.00,0,-999,0,0.00
2013-5-21,65,49,35,-100,-100,-100,0,0,100,0.00,40.00,0,-999,0,0.00
2013-5-22,50,43,37,-100,-100,-100,0,0,100,0.00,40.00,0,-999,0,0.01
2013-5-23,53,42,35,-100,-100,-100,0,0,100,0.00,40.00,0,-999,0,0.00
2013-5-24,50,41,30,-100,-100,-100,0,0,100,0.00,40.00,0,-999,0,0.00
2013-5-25,56,44,32,-100,-100,-100,0,0,100,0.00,40.00,0,-999,0,0.00
2013-5-26,61,43,32,-100,-100,-100,0,0,100,0.00,40.00,0,-999,0,0.01
2013-5-27,56,46,36,-100,-100,-100,0,0,100,0.00,40.00,0,-999,0,0.01
2013-5-28,52,46,41,-100,-100,-100,0,0,100,0.00,40.00,0,-999,0,0.01
2013-5-29,60,44,32,-100,-100,-100,0,0,100,0.00,40.00,0,-999,0,0.00
2013-5-30,49,43,39,-100,-100,-100,0,0,100,0.00,40.00,0,-999,0,0.01
2013-5-31,53,44,36,-100,-100,-100,0,0,100,0.00,40.00,0,-999,0,0.00
2013-6-1,64,47,29,-100,-100,-100,0,0,100,0.00,40.00,0,-999,0,0.00
2013-6-2,49,44,41,-100,-100,-100,0,0,100,0.00,40.00,0,-999,0,0.02
2013-6-3,58,46,38,-100,-100,-100,0,0,100,0.00,40.00,0,-999,0,0.02
2013-6-4,59,48,35,-100,-100,-100,0,0,100,0.00,40.00,0,-999,0,0.01
2013-6-5,72,53,35,-100,-100,-100,0,0,100,0.00,40.00,0,-999,0,0.00
2013-6-6,76,58,43,-100,-100,-100,0,0,100,0.00,40.00,0,-999,0,0.01
2013-6-7,73,57,45,-100,-100,-100,0,0,100,0.00,40.00,0,-999,0,0.00
2013-6-8,74,60,48,-100,-100,-100,0,0,100,0.00,40.00,0,-999,0,0.00
2013-6-9,78,60,42,-100,-100,-100,0,0,100,0.00,40.00,0,-999,0,0.00
2013-6-10,79,59,41,-100,-100,-100,0,0,100,0.00,40.00,0,-999,0,0.01
2013-6-11,74,58,45,-100,-100,-100,0,0,100,0.00,40.00,0,-999,0,0.01
2013-6-12,71,57,43,-100,-100,-100,0,0,100,0.00,40.00,0,-999,0,0.00
2013-6-13,53,45,38,-100,-100,-100,0,0,100,0.00,40.00,0,-999,0,0.03
2013-6-14,56,44,36,-100,-100,-100,0,0,100,0.00,40.00,0,-999,0,0.02
2013-6-15,71,52,31,-100,-100,-100,0,0,100,0.00,40.00,0,-999,0,0.01
2013-6-16,77,58,36,-100,-100,-100,0,0,100,0.00,40.00,0,-999,0,0.00
2013-6-17,79,62,41,-100,-100,-100,0,0,100,0.00,40.00,0,-999,0,0.00
2013-6-18,79,61,43,-100,-100,-100,0,0,100,0.00,40.00,0,-999,0,0.00
2013-6-19,56,48,42,-100,-100,-100,0,0,100,0.00,40.00,0,-999,0,0.01
2013-6-20,51,43,40,-100,-100,-100,0,0,100,0.00,40.00,0,-999,0,0.02
2013-6-24,68,59,49,-100,-100,-100,0,0,100,0.00,40.00,0,-999,0,0.00
2013-6-25,61,51,44,-100,-100,-100,0,0,100,0.00,40.00,0,-999,0,0.00
2013-6-26,66,54,48,-100,-100,-100,0,0,100,0.00,40.00,0,-999,0,0.01
2013-6-27,81,62,48,-100,-100,-100,0,0,100,0.00,40.00,0,-999,0,0.00
2013-6-28,86,69,47,-100,-100,-100,0,0,100,0.00,40.00,0,-999,0,0.00
2013-6-29,86,66,50,-100,-100,-100,0,0,100,0.00,40.00,0,-999,0,0.00
2013-6-30,86,71,52,-100,-100,-100,0,0,100,0.00,40.00,0,-999,0,0.00
2013-7-1,92,68,51,-100,-100,-100,0,0,100,0.00,40.00,0,-999,0,0.00
2013-7-2,92,72,53,-100,-100,-100,0,0,100,0.00,40.00,0,-999,0,0.00
2013-7-3,84,68,54,-100,-100,-100,0,0,100,0.00,40.00,0,-999,0,0.01
2013-7-4,81,66,53,-100,-100,-100,0,0,100,0.00,40.00,0,-999,0,0.00
2013-7-5,75,59,46,-100,-100,-100,0,0,100,0.00,40.00,0,-999,0,0.00
2013-7-6,81,58,44,-100,-100,-100,0,0,100,0.00,40.00,0,-999,0,0.00
2013-7-7,83,62,43,-100,-100,-100,0,0,100,0.00,40.00,0,-999,0,0.00
2013-7-8,77,59,47,-100,-100,-100,0,0,100,0.00,40.00,0,-999,0,0.00
2013-7-9,82,62,45,-100,-100,-100,0,0,100,0.00,40.00,0,-999,0,0.00
2013-7-10,87,63,45,-100,-100,-100,0,0,100,0.00,40.00,0,-999,0,0.00
2013-7-11,73,59,51,-100,-100,-100,0,0,100,0.00,40.00,0,-999,0,0.01
2013-7-12,75,56,42,-100,-100,-100,0,0,100,0.00,40.00,0,-999,0,0.00
2013-7-13,74,60,43,-100,-100,-100,0,0,100,0.00,40.00,0,-999,0,0.00
2013-7-14,80,60,41,-100,-100,-100,0,0,100,0.00,40.00,0,-999,0,0.00
2013-7-15,86,55,45,-100,-100,-100,0,0,100,0.00,40.00,0,-999,0,0.00
2013-7-16,78,58,48,-100,-100,-100,0,0,100,0.00,40.00,0,-999,0,0.00
2013-7-17,86,64,51,-100,-100,-100,0,0,100,0.00,40.00,0,-999,0,0.01
2013-7-18,82,67,48,-100,-100,-100,0,0,100,0.00,40.00,0,-999,0,0.00
2013-7-19,84,62,45,-100,-100,-100,0,0,100,0.00,40.00,0,-999,0,0.00
2013-7-20,84,62,45,-100,-100,-100,0,0,100,0.00,40.00,0,-999,0,0.00
2013-7-21,84,59,45,-100,-100,-100,0,0,100,0.00,40.00,0,-999,0,0.00
2013-7-22,82,61,46,-100,-100,-100,0,0,100,0.00,40.00,0,-999,0,0.00
2013-7-23,85,64,44,-100,-100,-100,0,0,100,0.00,40.00,0,-999,0,0.00
2013-7-24,86,66,47,-100,-100,-100,0,0,100,0.00,40.00,0,-999,0,0.00
2013-7-25,86,61,47,-100,-100,-100,0,0,100,0.00,40.00,0,-999,0,0.00
2013-7-26,84,62,48,-100,-100,-100,0,0,100,0.00,40.00,0,-999,0,0.00
2013-7-27,81,65,50,-100,-100,-100,0,0,100,0.00,40.00,0,-999,0,0.00
2013-7-28,77,59,48,-100,-100,-100,0,0,100,0.00,40.00,0,-999,0,0.00
2013-7-29,77,59,42,-100,-100,-100,0,0,100,0.00,40.00,0,-999,0,0.00
2013-7-30,77,62,52,-100,-100,-100,0,0,100,0.00,40.00,0,-999,0,0.01
2013-7-31,72,52,44,-100,-100,-100,0,0,100,0.00,40.00,0,-999,0,0.00
2013-10-22,37,36,34,-100,-100,-100,0,0,100,0.00,40.00,0,-999,0,0.00
2013-10-23,30,30,29,-100,-100,-100,0,0,100,0.00,40.00,0,-999,0,0.00
2013-10-24,47,47,47,-100,-100,-100,0,0,100,0.00,40.00,0,-999,0,0.00
2013-10-25,32,32,31,-100,-100,-100,0,0,100,0.00,40.00,0,-999,0,0.00
2013-10-26,30,30,30,-100,-100,-100,0,0,100,0.00,40.00,0,-999,0,0.00
2013-10-27,41,38,34,-100,-100,-100,0,0,100,0.00,40.00,0,-999,0,0.00
2013-11-13,40,39,36,-100,-100,-100,0,0,100,0.00,40.00,0,-999,0,0.00
2013-11-14,34,32,29,-100,-100,-100,0,0,100,0.00,40.00,0,-999,0,0.00
2013-11-15,36,36,36,-100,-100,-100,0,0,100,0.00,40.00,0,-999,0,0.00
2013-11-16,30,30,30,-100,-100,-100,0,0,100,0.00,40.00,0,-999,0,0.00
2013-11-17,34,34,34,-100,-100,-100,0,0,100,0.00,40.00,0,-999,0,0.00
2013-11-18,34,20,18,-100,-100,-100,0,0,100,0.00,40.00,0,-999,0,0.00
2013-11-19,39,36,35,-100,-100,-100,0,0,100,0.00,40.00,0,-999,0,0.01
2013-11-20,35,30,17,-100,-100,-100,0,0,100,0.00,40.00,0,-999,0,0.01
2013-11-21,13,13,13,-100,-100,-100,0,0,100,0.00,40.00,0,-999,0,0.00
2013-11-22,17,12,8,-100,-100,-100,0,0,100,0.00,40.00,0,-999,0,0.00
2013-11-23,12,12,11,-100,-100,-100,0,0,100,0.00,40.00,0,-999,0,0.00
2013-11-24,28,24,17,-100,-100,-100,0,0,100,0.00,40.00,0,-999,0,0.00
2013-11-25,25,24,24,-100,-100,-100,0,0,100,0.00,40.00,0,-999,0,0.00
2013-11-26,31,25,23,-100,-100,-100,0,0,100,0.00,40.00,0,-999,0,0.00
2013-11-27,33,28,25,-100,-100,-100,0,0,100,0.00,40.00,0,-999,0,0.00
2013-11-28,34,26,23,-100,-100,-100,0,0,100,0.00,40.00,0,-999,0,0.00
2013-11-29,32,26,23,-100,-100,-100,0,0,100,0.00,40.00,0,-999,0,0.00
2013-11-30,36,35,33,-100,-100,-100,0,0,100,0.00,40.00,0,-999,0,0.00
2013-12-1,35,35,35,-100,-100,-100,0,0,100,0.00,40.00,0,-999,0,0.00
2013-12-2,25,25,25,-100,-100,-100,0,0,100,0.00,40.00,0,-999,0,0.00
2013-12-3,10,10,9,-100,-100,-100,0,0,100,0.00,40.00,0,-999,0,0.00
2013-12-4,2,-3,-6,-100,-100,-100,0,0,100,0.00,40.00,0,-999,0,0.00
2013-12-9,19,14,-1,-100,-100,-100,0,0,100,0.00,40.00,0,-999,0,0.02
2013-12-10,23,21,20,-100,-100,-100,0,0,100,0.00,40.00,0,-999,0,0.00
2013-12-11,20,15,10,-100,-100,-100,0,0,100,0.00,40.00,0,-999,0,0.00
2013-12-12,14,13,12,-100,-100,-100,0,0,100,0.00,40.00,0,-999,0,0.00
2013-12-14,35,32,30,-100,-100,-100,0,0,100,0.00,40.00,0,-999,0,0.00
2013-12-15,35,31,27,-100,-100,-100,0,0,100,0.00,40.00,0,-999,0,0.00
2013-12-16,31,27,23,-100,-100,-100,0,0,100,0.00,40.00,0,-999,0,0.00
2013-12-17,33,23,20,-100,-100,-100,0,0,100,0.00,40.00,0,-999,0,0.00
2013-12-18,33,32,31,-100,-100,-100,0,0,100,0.00,40.00,0,-999,0,0.00
2013-12-19,26,24,23,-100,-100,-100,0,0,100,0.00,40.00,0,-999,0,0.00
2013-12-25,14,12,11,-100,-100,-100,0,0,100,0.00,40.00,0,-999,0,0.00
2013-12-26,33,31,29,-100,-100,-100,0,0,100,0.00,40.00,0,-999,0,0.00
2013-12-27,25,24,23,-100,-100,-100,0,0,100,0.00,40.00,0,-999,0,0.00
2013-12-29,16,16,16,-100,-100,-100,0,0,100,0.00,40.00,0,-999,0,0.00
2013-12-31,35,35,35,-100,-100,-100,0,0,100,0.00,40.00,0,-999,0,0.00
2014-1-1,31,28,20,-100,-100,-100,0,0,100,0.00,40.00,0,-999,0,0.01
2014-1-2,36,27,20,-100,-100,-100,0,0,100,0.00,40.00,0,-999,0,0.00